New Hill, North Carolina
Current Conditions -  °F | °C
As of 7:35 PM on Wednesday 24 Dec 2014 (Local Time) from KTTA Reporting Station
Broken Clouds Broken Clouds  
Wind Chill: 64°   Ceiling: 1700
Heat Index: 64°   Visibility: 10mi
Dew Point: 64°   Wind: 7mph
Humidity: 100%   Direction: 180°S
Pressure: 29.69"   Gusts: NA
Location:  35.68°N, 78.94°W
Report Text: KTTA 250035Z AUTO 18006KT 10SM BKN017 18/18 A2969 RMK AO2 T01780178
Loading
Personal Weather Stations






























Interactive Weather Map New forecast layout! Learn more

10-Day Weather Forecast

Advertisements
Track Severe Weather on mobile